sensor_id;sensor_type;location;lat;lon;timestamp;pressure;altitude;pressure_sealevel;temperature;humidity
9676;BME280;4876;42.656;23.292;2023-01-26T00:01:35;94754.25;;;-1.48;95.43
9676;BME280;4876;42.656;23.292;2023-01-26T00:04:02;94760.19;;;-1.48;95.56
9676;BME280;4876;42.656;23.292;2023-01-26T00:06:29;94761.97;;;-1.48;95.34
9676;BME280;4876;42.656;23.292;2023-01-26T00:08:56;94726.19;;;-1.56;95.25
9676;BME280;4876;42.656;23.292;2023-01-26T00:11:24;94749.41;;;-1.56;94.57
9676;BME280;4876;42.656;23.292;2023-01-26T00:13:52;94760.72;;;-1.46;94.29
9676;BME280;4876;42.656;23.292;2023-01-26T00:16:19;94765.66;;;-1.44;94.01
9676;BME280;4876;42.656;23.292;2023-01-26T00:18:48;94781.50;;;-1.41;93.70
9676;BME280;4876;42.656;23.292;2023-01-26T00:21:16;94772.97;;;-1.41;93.55
9676;BME280;4876;42.656;23.292;2023-01-26T00:23:44;94754.66;;;-1.51;93.16
9676;BME280;4876;42.656;23.292;2023-01-26T00:26:14;94766.69;;;-1.45;93.60
9676;BME280;4876;42.656;23.292;2023-01-26T00:28:41;94766.56;;;-1.50;93.45
9676;BME280;4876;42.656;23.292;2023-01-26T00:31:11;94741.34;;;-1.48;93.33
9676;BME280;4876;42.656;23.292;2023-01-26T00:33:39;94753.53;;;-1.55;93.25
9676;BME280;4876;42.656;23.292;2023-01-26T00:36:08;94743.22;;;-1.55;93.47
9676;BME280;4876;42.656;23.292;2023-01-26T00:38:35;94729.34;;;-1.54;93.59
9676;BME280;4876;42.656;23.292;2023-01-26T00:41:02;94702.44;;;-1.70;93.42
9676;BME280;4876;42.656;23.292;2023-01-26T00:43:29;94737.09;;;-1.54;93.37
9676;BME280;4876;42.656;23.292;2023-01-26T00:45:56;94729.13;;;-1.53;93.33
9676;BME280;4876;42.656;23.292;2023-01-26T00:48:22;94730.13;;;-1.54;93.36
9676;BME280;4876;42.656;23.292;2023-01-26T00:50:49;94731.47;;;-1.63;93.09
9676;BME280;4876;42.656;23.292;2023-01-26T00:53:18;94723.28;;;-1.60;93.59
9676;BME280;4876;42.656;23.292;2023-01-26T00:55:45;94724.50;;;-1.51;93.20
9676;BME280;4876;42.656;23.292;2023-01-26T00:58:12;94728.34;;;-1.53;92.91
9676;BME280;4876;42.656;23.292;2023-01-26T01:00:39;94716.34;;;-1.59;92.80
9676;BME280;4876;42.656;23.292;2023-01-26T01:03:05;94723.06;;;-1.58;93.26
9676;BME280;4876;42.656;23.292;2023-01-26T01:05:33;94708.03;;;-1.62;92.94
9676;BME280;4876;42.656;23.292;2023-01-26T01:08:00;94710.41;;;-1.60;93.18
9676;BME280;4876;42.656;23.292;2023-01-26T01:10:31;94717.13;;;-1.59;92.83
9676;BME280;4876;42.656;23.292;2023-01-26T01:12:57;94708.38;;;-1.70;92.53
9676;BME280;4876;42.656;23.292;2023-01-26T01:15:24;94704.22;;;-1.71;92.61
9676;BME280;4876;42.656;23.292;2023-01-26T01:17:51;94716.78;;;-1.63;92.93
9676;BME280;4876;42.656;23.292;2023-01-26T01:20:18;94705.13;;;-1.53;92.90
9676;BME280;4876;42.656;23.292;2023-01-26T01:22:45;94698.16;;;-1.53;92.01
9676;BME280;4876;42.656;23.292;2023-01-26T01:25:12;94691.66;;;-1.55;91.67
9676;BME280;4876;42.656;23.292;2023-01-26T01:27:40;94701.00;;;-1.54;91.36
9676;BME280;4876;42.656;23.292;2023-01-26T01:30:08;94701.19;;;-1.56;91.01
9676;BME280;4876;42.656;23.292;2023-01-26T01:32:35;94697.38;;;-1.53;91.11
9676;BME280;4876;42.656;23.292;2023-01-26T01:35:04;94697.38;;;-1.53;90.68
9676;BME280;4876;42.656;23.292;2023-01-26T01:37:31;94692.13;;;-1.58;90.82
9676;BME280;4876;42.656;23.292;2023-01-26T01:39:59;94690.09;;;-1.56;90.92
9676;BME280;4876;42.656;23.292;2023-01-26T01:42:25;94689.66;;;-1.53;90.64
9676;BME280;4876;42.656;23.292;2023-01-26T01:45:34;94692.56;;;-1.50;90.19
9676;BME280;4876;42.656;23.292;2023-01-26T01:48:04;94697.50;;;-1.48;89.86
9676;BME280;4876;42.656;23.292;2023-01-26T01:50:36;94671.59;;;-1.65;90.19
9676;BME280;4876;42.656;23.292;2023-01-26T01:53:06;94694.22;;;-1.55;89.81
9676;BME280;4876;42.656;23.292;2023-01-26T01:55:35;94679.00;;;-1.57;89.44
9676;BME280;4876;42.656;23.292;2023-01-26T01:58:03;94680.91;;;-1.52;89.73
9676;BME280;4876;42.656;23.292;2023-01-26T02:00:30;94684.94;;;-1.56;89.79
9676;BME280;4876;42.656;23.292;2023-01-26T02:03:01;94675.28;;;-1.49;89.66
9676;BME280;4876;42.656;23.292;2023-01-26T02:05:53;94677.97;;;-1.56;89.37
9676;BME280;4876;42.656;23.292;2023-01-26T02:08:24;94676.28;;;-1.50;89.41
9676;BME280;4876;42.656;23.292;2023-01-26T02:10:54;94671.72;;;-1.48;89.47
9676;BME280;4876;42.656;23.292;2023-01-26T02:13:25;94668.91;;;-1.47;89.04
9676;BME280;4876;42.656;23.292;2023-01-26T02:15:53;94665.88;;;-1.55;88.65
9676;BME280;4876;42.656;23.292;2023-01-26T02:18:21;94648.28;;;-1.58;89.10
9676;BME280;4876;42.656;23.292;2023-01-26T02:20:50;94655.13;;;-1.52;89.23
9676;BME280;4876;42.656;23.292;2023-01-26T02:23:29;94639.00;;;-1.59;89.41
9676;BME280;4876;42.656;23.292;2023-01-26T02:26:03;94640.31;;;-1.57;89.52
9676;BME280;4876;42.656;23.292;2023-01-26T02:28:30;94639.66;;;-1.64;89.53
9676;BME280;4876;42.656;23.292;2023-01-26T02:30:58;94613.66;;;-1.74;89.93
9676;BME280;4876;42.656;23.292;2023-01-26T02:33:27;94630.78;;;-1.68;89.54
9676;BME280;4876;42.656;23.292;2023-01-26T02:35:54;94631.16;;;-1.65;89.68
9676;BME280;4876;42.656;23.292;2023-01-26T02:38:22;94634.84;;;-1.60;90.11
9676;BME280;4876;42.656;23.292;2023-01-26T02:40:53;94637.97;;;-1.58;89.81
9676;BME280;4876;42.656;23.292;2023-01-26T02:43:24;94623.19;;;-1.63;89.74
9676;BME280;4876;42.656;23.292;2023-01-26T02:45:50;94622.41;;;-1.64;89.97
9676;BME280;4876;42.656;23.292;2023-01-26T02:48:17;94594.28;;;-1.65;90.14
9676;BME280;4876;42.656;23.292;2023-01-26T02:51:05;94581.75;;;-1.85;89.86
9676;BME280;4876;42.656;23.292;2023-01-26T02:53:31;94613.22;;;-1.59;89.94
9676;BME280;4876;42.656;23.292;2023-01-26T02:55:58;94608.47;;;-1.63;90.01
9676;BME280;4876;42.656;23.292;2023-01-26T02:58:26;94610.28;;;-1.63;90.25
9676;BME280;4876;42.656;23.292;2023-01-26T03:00:54;94607.94;;;-1.65;90.07
9676;BME280;4876;42.656;23.292;2023-01-26T03:03:23;94612.66;;;-1.73;90.22
9676;BME280;4876;42.656;23.292;2023-01-26T03:05:50;94604.81;;;-1.67;90.41
9676;BME280;4876;42.656;23.292;2023-01-26T03:08:17;94604.91;;;-1.62;90.11
9676;BME280;4876;42.656;23.292;2023-01-26T03:10:44;94593.03;;;-1.63;90.02
9676;BME280;4876;42.656;23.292;2023-01-26T03:13:12;94590.44;;;-1.63;90.20
9676;BME280;4876;42.656;23.292;2023-01-26T03:15:40;94571.31;;;-1.67;90.06
9676;BME280;4876;42.656;23.292;2023-01-26T03:18:18;94570.06;;;-1.64;89.31
9676;BME280;4876;42.656;23.292;2023-01-26T03:21:06;94553.03;;;-1.77;89.22
9676;BME280;4876;42.656;23.292;2023-01-26T03:23:52;94567.03;;;-1.61;88.95
9676;BME280;4876;42.656;23.292;2023-01-26T03:26:36;94567.81;;;-1.60;89.16
9676;BME280;4876;42.656;23.292;2023-01-26T03:29:21;94568.50;;;-1.65;88.99
9676;BME280;4876;42.656;23.292;2023-01-26T03:31:52;94563.88;;;-1.63;88.90
9676;BME280;4876;42.656;23.292;2023-01-26T03:34:19;94556.94;;;-1.63;88.64
9676;BME280;4876;42.656;23.292;2023-01-26T03:36:46;94565.22;;;-1.60;89.24
9676;BME280;4876;42.656;23.292;2023-01-26T03:39:13;94567.88;;;-1.55;89.32
9676;BME280;4876;42.656;23.292;2023-01-26T03:42:00;94561.16;;;-1.56;88.97
9676;BME280;4876;42.656;23.292;2023-01-26T03:44:45;94537.22;;;-1.69;88.47
9676;BME280;4876;42.656;23.292;2023-01-26T03:47:32;94561.94;;;-1.56;88.42
9676;BME280;4876;42.656;23.292;2023-01-26T03:50:17;94561.63;;;-1.59;87.85
9676;BME280;4876;42.656;23.292;2023-01-26T03:53:01;94552.88;;;-1.58;87.70
9676;BME280;4876;42.656;23.292;2023-01-26T03:55:45;94546.81;;;-1.52;87.33
9676;BME280;4876;42.656;23.292;2023-01-26T03:58:29;94544.47;;;-1.54;87.30
9676;BME280;4876;42.656;23.292;2023-01-26T04:00:56;94540.00;;;-1.58;87.11
9676;BME280;4876;42.656;23.292;2023-01-26T04:03:24;94541.31;;;-1.56;86.90
9676;BME280;4876;42.656;23.292;2023-01-26T04:06:08;94545.25;;;-1.53;86.95
9676;BME280;4876;42.656;23.292;2023-01-26T04:08:52;94546.94;;;-1.59;86.74
9676;BME280;4876;42.656;23.292;2023-01-26T04:11:19;94527.66;;;-1.56;87.15
9676;BME280;4876;42.656;23.292;2023-01-26T04:13:46;94536.50;;;-1.52;87.25
9676;BME280;4876;42.656;23.292;2023-01-26T04:16:30;94526.63;;;-1.55;86.81
9676;BME280;4876;42.656;23.292;2023-01-26T04:19:16;94516.78;;;-1.58;86.54
9676;BME280;4876;42.656;23.292;2023-01-26T04:22:00;94505.47;;;-1.57;87.26
9676;BME280;4876;42.656;23.292;2023-01-26T04:24:26;94511.53;;;-1.64;87.78
9676;BME280;4876;42.656;23.292;2023-01-26T04:26:53;94498.75;;;-1.58;87.91
9676;BME280;4876;42.656;23.292;2023-01-26T04:29:20;94494.84;;;-1.61;86.85
9676;BME280;4876;42.656;23.292;2023-01-26T04:31:47;94495.06;;;-1.63;86.15
9676;BME280;4876;42.656;23.292;2023-01-26T04:34:16;94463.94;;;-1.73;86.39
9676;BME280;4876;42.656;23.292;2023-01-26T04:36:42;94483.81;;;-1.56;85.94
9676;BME280;4876;42.656;23.292;2023-01-26T04:39:09;94486.63;;;-1.58;85.29
9676;BME280;4876;42.656;23.292;2023-01-26T04:41:36;94490.53;;;-1.55;85.29
9676;BME280;4876;42.656;23.292;2023-01-26T04:44:03;94496.81;;;-1.51;85.35
9676;BME280;4876;42.656;23.292;2023-01-26T04:46:29;94500.94;;;-1.50;84.88
9676;BME280;4876;42.656;23.292;2023-01-26T04:48:57;94492.56;;;-1.57;84.45
9676;BME280;4876;42.656;23.292;2023-01-26T04:51:25;94504.44;;;-1.56;84.47
9676;BME280;4876;42.656;23.292;2023-01-26T04:53:53;94511.84;;;-1.48;83.13
9676;BME280;4876;42.656;23.292;2023-01-26T04:56:22;94489.53;;;-1.54;82.99
9676;BME280;4876;42.656;23.292;2023-01-26T04:58:49;94512.03;;;-1.50;83.03
9676;BME280;4876;42.656;23.292;2023-01-26T05:01:16;94510.03;;;-1.48;83.17
9676;BME280;4876;42.656;23.292;2023-01-26T05:03:43;94508.78;;;-1.45;83.28
9676;BME280;4876;42.656;23.292;2023-01-26T05:06:10;94480.16;;;-1.60;83.14
9676;BME280;4876;42.656;23.292;2023-01-26T05:08:38;94479.91;;;-1.59;83.28
9676;BME280;4876;42.656;23.292;2023-01-26T05:11:05;94495.97;;;-1.40;83.28
9676;BME280;4876;42.656;23.292;2023-01-26T05:13:32;94500.13;;;-1.39;83.34
9676;BME280;4876;42.656;23.292;2023-01-26T05:16:00;94485.56;;;-1.45;83.25
9676;BME280;4876;42.656;23.292;2023-01-26T05:18:27;94504.06;;;-1.37;83.34
9676;BME280;4876;42.656;23.292;2023-01-26T05:20:54;94499.09;;;-1.38;83.14
9676;BME280;4876;42.656;23.292;2023-01-26T05:23:21;94502.47;;;-1.38;83.45
9676;BME280;4876;42.656;23.292;2023-01-26T05:25:50;94488.66;;;-1.31;83.13
9676;BME280;4876;42.656;23.292;2023-01-26T05:28:16;94473.16;;;-1.48;83.03
9676;BME280;4876;42.656;23.292;2023-01-26T05:30:43;94493.03;;;-1.32;83.05
9676;BME280;4876;42.656;23.292;2023-01-26T05:33:10;94492.00;;;-1.31;82.99
9676;BME280;4876;42.656;23.292;2023-01-26T05:35:37;94489.53;;;-1.26;83.70
9676;BME280;4876;42.656;23.292;2023-01-26T05:38:04;94483.50;;;-1.31;83.78
9676;BME280;4876;42.656;23.292;2023-01-26T05:40:30;94474.53;;;-1.29;82.93
9676;BME280;4876;42.656;23.292;2023-01-26T05:42:58;94484.84;;;-1.29;83.13
9676;BME280;4876;42.656;23.292;2023-01-26T05:45:25;94484.06;;;-1.29;83.20
9676;BME280;4876;42.656;23.292;2023-01-26T05:47:52;94484.38;;;-1.26;83.13
9676;BME280;4876;42.656;23.292;2023-01-26T05:50:19;94499.84;;;-1.26;83.37
9676;BME280;4876;42.656;23.292;2023-01-26T05:52:46;94497.50;;;-1.27;83.16
9676;BME280;4876;42.656;23.292;2023-01-26T05:55:14;94487.41;;;-1.29;82.86
9676;BME280;4876;42.656;23.292;2023-01-26T05:57:41;94492.09;;;-1.26;83.29
9676;BME280;4876;42.656;23.292;2023-01-26T06:00:11;94497.84;;;-1.24;83.18
9676;BME280;4876;42.656;23.292;2023-01-26T06:02:38;94491.19;;;-1.20;83.20
9676;BME280;4876;42.656;23.292;2023-01-26T06:05:07;94494.31;;;-1.18;82.44
9676;BME280;4876;42.656;23.292;2023-01-26T06:07:33;94502.06;;;-1.18;82.49
9676;BME280;4876;42.656;23.292;2023-01-26T06:10:00;94495.88;;;-1.17;81.99
9676;BME280;4876;42.656;23.292;2023-01-26T06:12:27;94487.53;;;-0.57;86.57
9676;BME280;4876;42.656;23.292;2023-01-26T06:14:56;94472.66;;;-1.00;82.06
9676;BME280;4876;42.656;23.292;2023-01-26T06:17:24;94483.28;;;-1.13;81.97
9676;BME280;4876;42.656;23.292;2023-01-26T06:19:51;94488.16;;;-1.17;82.76
9676;BME280;4876;42.656;23.292;2023-01-26T06:22:18;94478.59;;;-1.16;82.71
9676;BME280;4876;42.656;23.292;2023-01-26T06:24:45;94456.47;;;-1.29;82.59
9676;BME280;4876;42.656;23.292;2023-01-26T06:27:13;94474.69;;;-1.19;82.75
9676;BME280;4876;42.656;23.292;2023-01-26T06:29:40;94485.09;;;-1.14;82.92
9676;BME280;4876;42.656;23.292;2023-01-26T06:32:09;94464.34;;;-1.19;83.06
9676;BME280;4876;42.656;23.292;2023-01-26T06:34:57;94471.78;;;-1.22;82.94
9676;BME280;4876;42.656;23.292;2023-01-26T06:37:23;94468.44;;;-1.23;83.60
9676;BME280;4876;42.656;23.292;2023-01-26T06:39:50;94456.72;;;-1.14;83.95
9676;BME280;4876;42.656;23.292;2023-01-26T06:42:17;94474.22;;;-1.16;83.44
9676;BME280;4876;42.656;23.292;2023-01-26T06:44:44;94467.59;;;-1.12;83.30
9676;BME280;4876;42.656;23.292;2023-01-26T06:47:10;94470.94;;;-1.11;83.16
9676;BME280;4876;42.656;23.292;2023-01-26T06:49:39;94472.97;;;-1.13;82.93
9676;BME280;4876;42.656;23.292;2023-01-26T06:52:21;94469.25;;;-1.05;83.42
9676;BME280;4876;42.656;23.292;2023-01-26T06:54:48;94462.81;;;-1.03;82.93
9676;BME280;4876;42.656;23.292;2023-01-26T06:57:15;94464.09;;;-1.05;82.99
9676;BME280;4876;42.656;23.292;2023-01-26T06:59:42;94447.34;;;-1.03;82.87
9676;BME280;4876;42.656;23.292;2023-01-26T07:02:15;94460.00;;;-1.01;82.61
9676;BME280;4876;42.656;23.292;2023-01-26T07:04:42;94452.94;;;-1.06;82.95
9676;BME280;4876;42.656;23.292;2023-01-26T07:07:09;94453.75;;;-1.05;83.52
9676;BME280;4876;42.656;23.292;2023-01-26T07:09:37;94445.28;;;-1.01;83.55
9676;BME280;4876;42.656;23.292;2023-01-26T07:12:04;94437.47;;;-1.06;83.65
9676;BME280;4876;42.656;23.292;2023-01-26T07:14:31;94450.59;;;-1.08;83.47
9676;BME280;4876;42.656;23.292;2023-01-26T07:16:59;94443.88;;;-1.09;83.64
9676;BME280;4876;42.656;23.292;2023-01-26T07:19:26;94446.66;;;-0.98;83.79
9676;BME280;4876;42.656;23.292;2023-01-26T07:22:05;94436.53;;;-1.00;83.05
9676;BME280;4876;42.656;23.292;2023-01-26T07:24:31;94443.56;;;-0.95;83.66
9676;BME280;4876;42.656;23.292;2023-01-26T07:26:59;94441.41;;;-0.87;83.10
9676;BME280;4876;42.656;23.292;2023-01-26T07:29:26;94405.56;;;-1.00;82.74
9676;BME280;4876;42.656;23.292;2023-01-26T07:31:53;94425.81;;;-0.75;83.01
9676;BME280;4876;42.656;23.292;2023-01-26T07:34:20;94429.97;;;-0.74;82.71
9676;BME280;4876;42.656;23.292;2023-01-26T07:36:47;94432.31;;;-0.72;82.61
9676;BME280;4876;42.656;23.292;2023-01-26T07:39:16;94430.19;;;-0.75;82.17
9676;BME280;4876;42.656;23.292;2023-01-26T07:41:43;94423.78;;;-0.73;81.93
9676;BME280;4876;42.656;23.292;2023-01-26T07:44:11;94416.66;;;-0.66;82.30
9676;BME280;4876;42.656;23.292;2023-01-26T07:46:38;94432.91;;;-0.65;81.36
9676;BME280;4876;42.656;23.292;2023-01-26T07:49:05;94430.25;;;-0.70;81.47
9676;BME280;4876;42.656;23.292;2023-01-26T07:51:32;94431.66;;;-0.63;81.36
9676;BME280;4876;42.656;23.292;2023-01-26T07:53:59;94428.69;;;-0.55;80.86
9676;BME280;4876;42.656;23.292;2023-01-26T07:56:26;94431.19;;;-0.60;80.74
9676;BME280;4876;42.656;23.292;2023-01-26T07:58:53;94438.00;;;-0.53;80.30
9676;BME280;4876;42.656;23.292;2023-01-26T08:01:22;94433.53;;;-0.58;80.83
9676;BME280;4876;42.656;23.292;2023-01-26T08:03:50;94428.38;;;-0.58;80.98
9676;BME280;4876;42.656;23.292;2023-01-26T08:06:18;94424.94;;;-0.64;81.00
9676;BME280;4876;42.656;23.292;2023-01-26T08:08:45;94418.44;;;-0.66;81.63
9676;BME280;4876;42.656;23.292;2023-01-26T08:11:16;94424.84;;;-0.69;82.11
9676;BME280;4876;42.656;23.292;2023-01-26T08:13:43;94412.03;;;-0.64;82.06
9676;BME280;4876;42.656;23.292;2023-01-26T08:16:10;94414.16;;;-0.61;81.61
9676;BME280;4876;42.656;23.292;2023-01-26T08:18:40;94405.91;;;-0.58;81.82
9676;BME280;4876;42.656;23.292;2023-01-26T08:21:07;94402.56;;;-0.75;81.83
9676;BME280;4876;42.656;23.292;2023-01-26T08:23:34;94412.19;;;-0.70;81.58
9676;BME280;4876;42.656;23.292;2023-01-26T08:26:01;94412.59;;;-0.62;82.05
9676;BME280;4876;42.656;23.292;2023-01-26T08:28:28;94418.81;;;-0.58;81.51
9676;BME280;4876;42.656;23.292;2023-01-26T08:30:55;94408.50;;;-0.58;81.23
9676;BME280;4876;42.656;23.292;2023-01-26T08:33:22;94421.31;;;-0.63;81.24
9676;BME280;4876;42.656;23.292;2023-01-26T08:35:50;94415.94;;;-0.61;81.51
9676;BME280;4876;42.656;23.292;2023-01-26T08:38:17;94393.06;;;-0.52;81.76
9676;BME280;4876;42.656;23.292;2023-01-26T08:40:50;94401.91;;;-0.48;81.15
9676;BME280;4876;42.656;23.292;2023-01-26T08:43:17;94397.69;;;-0.55;81.24
9676;BME280;4876;42.656;23.292;2023-01-26T08:45:46;94384.22;;;-0.57;81.07
9676;BME280;4876;42.656;23.292;2023-01-26T08:48:13;94400.97;;;-0.42;80.78
9676;BME280;4876;42.656;23.292;2023-01-26T08:50:39;94391.16;;;-0.40;80.70
9676;BME280;4876;42.656;23.292;2023-01-26T08:53:10;94429.59;;;-0.44;80.57
9676;BME280;4876;42.656;23.292;2023-01-26T08:55:39;94406.13;;;-0.42;80.28
9676;BME280;4876;42.656;23.292;2023-01-26T08:58:09;94398.91;;;-0.40;80.03
9676;BME280;4876;42.656;23.292;2023-01-26T09:00:36;94398.78;;;-0.29;79.74
9676;BME280;4876;42.656;23.292;2023-01-26T09:03:04;94396.03;;;-0.22;79.66
9676;BME280;4876;42.656;23.292;2023-01-26T09:05:32;94400.09;;;-0.26;79.41
9676;BME280;4876;42.656;23.292;2023-01-26T09:07:59;94405.06;;;-0.24;79.41
9676;BME280;4876;42.656;23.292;2023-01-26T09:10:27;94408.09;;;-0.28;79.59
9676;BME280;4876;42.656;23.292;2023-01-26T09:12:56;94419.22;;;-0.27;79.06
9676;BME280;4876;42.656;23.292;2023-01-26T09:15:23;94403.13;;;-0.34;79.40
9676;BME280;4876;42.656;23.292;2023-01-26T09:17:50;94392.66;;;-0.22;79.04
9676;BME280;4876;42.656;23.292;2023-01-26T09:20:17;94392.22;;;-0.14;78.83
9676;BME280;4876;42.656;23.292;2023-01-26T09:22:45;94383.63;;;-0.20;78.43
9676;BME280;4876;42.656;23.292;2023-01-26T09:25:13;94375.41;;;-0.17;78.55
9676;BME280;4876;42.656;23.292;2023-01-26T09:27:41;94382.16;;;-0.16;79.19
9676;BME280;4876;42.656;23.292;2023-01-26T09:30:09;94373.88;;;-0.18;78.82
9676;BME280;4876;42.656;23.292;2023-01-26T09:32:36;94367.09;;;-0.19;79.16
9676;BME280;4876;42.656;23.292;2023-01-26T09:35:03;94336.66;;;-0.39;79.20
9676;BME280;4876;42.656;23.292;2023-01-26T09:37:30;94349.78;;;-0.23;79.30
9676;BME280;4876;42.656;23.292;2023-01-26T09:39:57;94356.56;;;-0.17;79.52
9676;BME280;4876;42.656;23.292;2023-01-26T09:42:39;94351.47;;;-0.07;79.28
9676;BME280;4876;42.656;23.292;2023-01-26T09:45:22;94360.25;;;-0.08;79.30
9676;BME280;4876;42.656;23.292;2023-01-26T09:47:58;94366.69;;;-0.11;79.19
9676;BME280;4876;42.656;23.292;2023-01-26T09:50:30;94357.91;;;-0.10;79.47
9676;BME280;4876;42.656;23.292;2023-01-26T09:53:03;94353.34;;;-0.03;79.45
9676;BME280;4876;42.656;23.292;2023-01-26T09:55:31;94345.53;;;-0.08;79.66
9676;BME280;4876;42.656;23.292;2023-01-26T09:58:01;94337.25;;;-0.10;79.23
9676;BME280;4876;42.656;23.292;2023-01-26T10:00:32;94336.75;;;-0.07;79.08
9676;BME280;4876;42.656;23.292;2023-01-26T10:03:12;94354.91;;;-0.02;79.72
9676;BME280;4876;42.656;23.292;2023-01-26T10:05:46;94315.22;;;-0.17;79.11
9676;BME280;4876;42.656;23.292;2023-01-26T10:08:17;94336.59;;;0.00;79.56
9676;BME280;4876;42.656;23.292;2023-01-26T10:10:48;94332.66;;;-0.03;79.43
9676;BME280;4876;42.656;23.292;2023-01-26T10:13:16;94319.78;;;0.03;78.98
9676;BME280;4876;42.656;23.292;2023-01-26T10:15:47;94301.19;;;0.01;78.98
9676;BME280;4876;42.656;23.292;2023-01-26T10:18:18;94303.25;;;0.04;79.44
9676;BME280;4876;42.656;23.292;2023-01-26T10:20:50;94285.66;;;0.01;79.36
9676;BME280;4876;42.656;23.292;2023-01-26T10:23:20;94283.56;;;-0.03;79.33
9676;BME280;4876;42.656;23.292;2023-01-26T10:25:48;94284.88;;;0.00;78.70
9676;BME280;4876;42.656;23.292;2023-01-26T10:28:17;94271.22;;;0.05;79.38
9676;BME280;4876;42.656;23.292;2023-01-26T10:30:47;94268.41;;;0.11;78.19
9676;BME280;4876;42.656;23.292;2023-01-26T10:33:19;94251.59;;;0.09;78.17
9676;BME280;4876;42.656;23.292;2023-01-26T10:35:47;94250.09;;;0.13;78.34
9676;BME280;4876;42.656;23.292;2023-01-26T10:38:37;94247.50;;;0.13;78.41
9676;BME280;4876;42.656;23.292;2023-01-26T10:41:05;94167.31;;;-0.30;78.55
9676;BME280;4876;42.656;23.292;2023-01-26T10:43:36;94220.06;;;0.12;78.01
9676;BME280;4876;42.656;23.292;2023-01-26T10:46:22;94209.25;;;0.15;78.32
9676;BME280;4876;42.656;23.292;2023-01-26T10:48:50;94222.03;;;0.26;78.33
9676;BME280;4876;42.656;23.292;2023-01-26T10:51:23;94225.13;;;0.29;78.09
9676;BME280;4876;42.656;23.292;2023-01-26T10:53:55;94236.81;;;0.36;77.58
9676;BME280;4876;42.656;23.292;2023-01-26T10:56:43;94204.22;;;0.35;77.03
9676;BME280;4876;42.656;23.292;2023-01-26T10:59:12;94197.19;;;0.31;77.01
9676;BME280;4876;42.656;23.292;2023-01-26T11:01:54;94201.69;;;0.40;77.12
9676;BME280;4876;42.656;23.292;2023-01-26T11:04:22;94199.59;;;0.42;76.75
9676;BME280;4876;42.656;23.292;2023-01-26T11:06:50;94162.56;;;0.32;76.98
9676;BME280;4876;42.656;23.292;2023-01-26T11:09:19;94190.03;;;0.43;77.04
9676;BME280;4876;42.656;23.292;2023-01-26T11:11:59;94186.91;;;0.36;77.21
9676;BME280;4876;42.656;23.292;2023-01-26T11:14:27;94168.56;;;0.42;77.63
9676;BME280;4876;42.656;23.292;2023-01-26T11:16:59;94164.94;;;0.43;77.09
9676;BME280;4876;42.656;23.292;2023-01-26T11:19:53;94156.63;;;0.36;77.25
9676;BME280;4876;42.656;23.292;2023-01-26T11:22:29;94164.94;;;0.43;77.11
9676;BME280;4876;42.656;23.292;2023-01-26T11:25:06;94149.94;;;0.40;76.97
9676;BME280;4876;42.656;23.292;2023-01-26T11:27:45;94149.44;;;0.43;77.73
9676;BME280;4876;42.656;23.292;2023-01-26T11:30:40;94126.63;;;0.35;77.80
9676;BME280;4876;42.656;23.292;2023-01-26T11:33:19;94147.66;;;0.49;77.84
9676;BME280;4876;42.656;23.292;2023-01-26T11:35:51;94132.91;;;0.49;77.83
9676;BME280;4876;42.656;23.292;2023-01-26T11:38:37;94155.41;;;0.44;77.58
9676;BME280;4876;42.656;23.292;2023-01-26T11:41:18;94147.91;;;0.47;77.59
9676;BME280;4876;42.656;23.292;2023-01-26T11:47:00;94134.53;;;0.61;77.61
9676;BME280;4876;42.656;23.292;2023-01-26T11:49:45;94120.53;;;0.62;77.68
9676;BME280;4876;42.656;23.292;2023-01-26T11:52:25;94126.25;;;0.59;78.25
9676;BME280;4876;42.656;23.292;2023-01-26T11:55:13;94150.56;;;0.58;78.03
9676;BME280;4876;42.656;23.292;2023-01-26T11:57:49;94131.13;;;0.50;78.25
9676;BME280;4876;42.656;23.292;2023-01-26T12:00:22;94130.31;;;0.44;78.52
9676;BME280;4876;42.656;23.292;2023-01-26T12:02:53;94115.34;;;0.51;78.16
9676;BME280;4876;42.656;23.292;2023-01-26T12:05:30;94102.97;;;0.59;78.54
9676;BME280;4876;42.656;23.292;2023-01-26T12:08:03;94097.03;;;0.63;78.30
9676;BME280;4876;42.656;23.292;2023-01-26T12:10:35;94092.88;;;0.67;77.88
9676;BME280;4876;42.656;23.292;2023-01-26T12:13:08;94090.56;;;0.66;77.95
9676;BME280;4876;42.656;23.292;2023-01-26T12:15:38;94087.94;;;0.61;78.26
9676;BME280;4876;42.656;23.292;2023-01-26T12:18:14;94074.53;;;0.69;78.16
9676;BME280;4876;42.656;23.292;2023-01-26T12:20:50;94085.38;;;0.66;78.42
9676;BME280;4876;42.656;23.292;2023-01-26T12:23:26;94063.13;;;0.60;78.89
9676;BME280;4876;42.656;23.292;2023-01-26T12:25:57;94057.94;;;0.60;79.41
9676;BME280;4876;42.656;23.292;2023-01-26T12:28:29;94053.81;;;0.64;79.21
9676;BME280;4876;42.656;23.292;2023-01-26T12:31:01;94058.72;;;0.65;79.47
9676;BME280;4876;42.656;23.292;2023-01-26T12:33:30;94059.25;;;0.62;79.34
9676;BME280;4876;42.656;23.292;2023-01-26T12:36:19;94057.97;;;0.65;79.71
9676;BME280;4876;42.656;23.292;2023-01-26T12:39:02;94047.59;;;0.60;80.07
9676;BME280;4876;42.656;23.292;2023-01-26T12:41:40;94049.13;;;0.61;80.63
9676;BME280;4876;42.656;23.292;2023-01-26T12:44:22;94045.53;;;0.62;80.75
9676;BME280;4876;42.656;23.292;2023-01-26T12:46:53;94032.59;;;0.62;80.52
9676;BME280;4876;42.656;23.292;2023-01-26T12:49:27;94035.44;;;0.60;81.02
9676;BME280;4876;42.656;23.292;2023-01-26T12:52:02;94039.34;;;0.63;81.04
9676;BME280;4876;42.656;23.292;2023-01-26T12:54:36;94027.44;;;0.67;81.26
9676;BME280;4876;42.656;23.292;2023-01-26T12:57:11;94011.34;;;0.54;80.93
9676;BME280;4876;42.656;23.292;2023-01-26T12:59:40;94026.66;;;0.66;81.05
9676;BME280;4876;42.656;23.292;2023-01-26T13:02:19;94015.03;;;0.69;81.06
9676;BME280;4876;42.656;23.292;2023-01-26T13:04:49;94015.03;;;0.74;81.47
9676;BME280;4876;42.656;23.292;2023-01-26T13:07:34;94021.78;;;0.75;81.59
9676;BME280;4876;42.656;23.292;2023-01-26T13:13:24;94024.84;;;0.67;81.77
9676;BME280;4876;42.656;23.292;2023-01-26T13:16:31;94029.53;;;0.70;82.50
9676;BME280;4876;42.656;23.292;2023-01-26T13:18:58;94014.25;;;0.63;82.43
9676;BME280;4876;42.656;23.292;2023-01-26T13:21:26;94019.41;;;0.73;82.06
9676;BME280;4876;42.656;23.292;2023-01-26T13:23:53;94014.00;;;0.75;82.16
9676;BME280;4876;42.656;23.292;2023-01-26T13:26:40;94022.78;;;0.74;82.04
9676;BME280;4876;42.656;23.292;2023-01-26T13:29:29;94018.41;;;0.69;82.28
9676;BME280;4876;42.656;23.292;2023-01-26T13:35:20;94012.44;;;0.69;82.47
9676;BME280;4876;42.656;23.292;2023-01-26T13:37:53;94007.50;;;0.72;82.87
9676;BME280;4876;42.656;23.292;2023-01-26T13:40:25;94010.63;;;0.69;83.33
9676;BME280;4876;42.656;23.292;2023-01-26T13:42:59;94017.09;;;0.72;83.20